sensor_id;sensor_type;location;lat;lon;timestamp;temperature;humidity
31675;DHT22;18276;45.520;11.018;2022-09-09T00:02:22;20.90;87.10
31675;DHT22;18276;45.520;11.018;2022-09-09T00:13:10;20.90;86.90
31675;DHT22;18276;45.520;11.018;2022-09-09T00:21:12;20.80;87.00
31675;DHT22;18276;45.520;11.018;2022-09-09T00:23:51;20.90;87.10
31675;DHT22;18276;45.520;11.018;2022-09-09T00:29:26;20.80;87.30
31675;DHT22;18276;45.520;11.018;2022-09-09T00:32:09;20.80;87.30
31675;DHT22;18276;45.520;11.018;2022-09-09T00:37:19;20.80;87.30
31675;DHT22;18276;45.520;11.018;2022-09-09T00:39:48;20.80;87.30
31675;DHT22;18276;45.520;11.018;2022-09-09T00:42:20;20.70;87.40
31675;DHT22;18276;45.520;11.018;2022-09-09T00:45:37;20.80;87.50
31675;DHT22;18276;45.520;11.018;2022-09-09T00:47:51;20.70;87.30
31675;DHT22;18276;45.520;11.018;2022-09-09T00:50:47;20.70;87.70
31675;DHT22;18276;45.520;11.018;2022-09-09T00:56:22;20.60;87.80
31675;DHT22;18276;45.520;11.018;2022-09-09T00:58:57;20.70;87.70
31675;DHT22;18276;45.520;11.018;2022-09-09T01:01:27;20.70;87.70
31675;DHT22;18276;45.520;11.018;2022-09-09T01:03:55;20.60;87.60
31675;DHT22;18276;45.520;11.018;2022-09-09T01:06:31;20.60;87.60
31675;DHT22;18276;45.520;11.018;2022-09-09T01:23:35;20.50;88.40
31675;DHT22;18276;45.520;11.018;2022-09-09T01:29:11;20.50;88.70
31675;DHT22;18276;45.520;11.018;2022-09-09T01:32:02;20.50;88.70
31675;DHT22;18276;45.520;11.018;2022-09-09T01:34:38;20.50;88.70
31675;DHT22;18276;45.520;11.018;2022-09-09T01:37:08;20.50;88.90
31675;DHT22;18276;45.520;11.018;2022-09-09T01:39:39;20.40;88.80
31675;DHT22;18276;45.520;11.018;2022-09-09T01:42:13;20.40;88.80
31675;DHT22;18276;45.520;11.018;2022-09-09T01:44:41;20.40;88.80
31675;DHT22;18276;45.520;11.018;2022-09-09T01:47:09;20.50;88.90
31675;DHT22;18276;45.520;11.018;2022-09-09T01:49:51;20.50;88.90
31675;DHT22;18276;45.520;11.018;2022-09-09T01:52:23;20.50;88.90
31675;DHT22;18276;45.520;11.018;2022-09-09T01:54:50;20.50;88.80
31675;DHT22;18276;45.520;11.018;2022-09-09T01:57:30;20.50;88.90
31675;DHT22;18276;45.520;11.018;2022-09-09T02:02:47;20.50;88.90
31675;DHT22;18276;45.520;11.018;2022-09-09T02:05:41;20.50;88.90
31675;DHT22;18276;45.520;11.018;2022-09-09T02:08:23;20.50;88.90
31675;DHT22;18276;45.520;11.018;2022-09-09T02:13:38;20.40;89.60
31675;DHT22;18276;45.520;11.018;2022-09-09T02:16:33;20.40;90.10
31675;DHT22;18276;45.520;11.018;2022-09-09T02:19:31;20.40;89.40
31675;DHT22;18276;45.520;11.018;2022-09-09T02:22:12;20.40;89.50
31675;DHT22;18276;45.520;11.018;2022-09-09T02:24:39;20.40;89.40
31675;DHT22;18276;45.520;11.018;2022-09-09T02:27:14;20.40;89.40
31675;DHT22;18276;45.520;11.018;2022-09-09T02:29:43;20.40;89.30
31675;DHT22;18276;45.520;11.018;2022-09-09T02:32:19;20.40;89.30
31675;DHT22;18276;45.520;11.018;2022-09-09T02:34:52;20.50;89.30
31675;DHT22;18276;45.520;11.018;2022-09-09T02:37:24;20.50;89.30
31675;DHT22;18276;45.520;11.018;2022-09-09T02:39:56;20.50;89.20
31675;DHT22;18276;45.520;11.018;2022-09-09T02:42:24;20.50;89.10
31675;DHT22;18276;45.520;11.018;2022-09-09T02:44:53;20.50;89.10
31675;DHT22;18276;45.520;11.018;2022-09-09T02:51:07;20.50;89.20
31675;DHT22;18276;45.520;11.018;2022-09-09T02:53:20;20.50;89.30
31675;DHT22;18276;45.520;11.018;2022-09-09T02:55:55;20.50;89.40
31675;DHT22;18276;45.520;11.018;2022-09-09T02:58:23;20.50;89.50
31675;DHT22;18276;45.520;11.018;2022-09-09T03:00:58;20.50;89.60
31675;DHT22;18276;45.520;11.018;2022-09-09T03:03:28;20.50;89.80
31675;DHT22;18276;45.520;11.018;2022-09-09T03:05:58;20.40;89.80
31675;DHT22;18276;45.520;11.018;2022-09-09T03:08:27;20.40;90.00
31675;DHT22;18276;45.520;11.018;2022-09-09T03:10:58;20.40;90.00
31675;DHT22;18276;45.520;11.018;2022-09-09T03:13:30;20.40;90.00
31675;DHT22;18276;45.520;11.018;2022-09-09T03:15:58;20.40;90.00
31675;DHT22;18276;45.520;11.018;2022-09-09T03:18:26;20.50;90.10
31675;DHT22;18276;45.520;11.018;2022-09-09T03:20:54;20.40;90.20
31675;DHT22;18276;45.520;11.018;2022-09-09T03:23:22;20.40;90.20
31675;DHT22;18276;45.520;11.018;2022-09-09T03:25:50;20.40;90.30
31675;DHT22;18276;45.520;11.018;2022-09-09T03:28:28;20.40;90.40
31675;DHT22;18276;45.520;11.018;2022-09-09T03:31:04;20.30;90.40
31675;DHT22;18276;45.520;11.018;2022-09-09T03:33:39;20.40;90.60
31675;DHT22;18276;45.520;11.018;2022-09-09T03:36:10;20.40;90.70
31675;DHT22;18276;45.520;11.018;2022-09-09T03:38:38;20.30;90.70
31675;DHT22;18276;45.520;11.018;2022-09-09T03:41:05;20.30;90.80
31675;DHT22;18276;45.520;11.018;2022-09-09T03:43:33;20.30;90.90
31675;DHT22;18276;45.520;11.018;2022-09-09T03:46:00;20.30;91.00
31675;DHT22;18276;45.520;11.018;2022-09-09T03:48:28;20.30;91.10
31675;DHT22;18276;45.520;11.018;2022-09-09T03:50:56;20.30;91.20
31675;DHT22;18276;45.520;11.018;2022-09-09T03:53:28;20.30;91.30
31675;DHT22;18276;45.520;11.018;2022-09-09T03:55:57;20.30;91.50
31675;DHT22;18276;45.520;11.018;2022-09-09T03:58:27;20.20;91.70
31675;DHT22;18276;45.520;11.018;2022-09-09T04:01:04;20.20;91.90
31675;DHT22;18276;45.520;11.018;2022-09-09T04:03:33;20.10;91.80
31675;DHT22;18276;45.520;11.018;2022-09-09T04:06:01;20.10;92.20
31675;DHT22;18276;45.520;11.018;2022-09-09T04:08:31;20.10;92.30
31675;DHT22;18276;45.520;11.018;2022-09-09T04:10:59;20.10;92.50
31675;DHT22;18276;45.520;11.018;2022-09-09T04:13:33;20.10;92.50
31675;DHT22;18276;45.520;11.018;2022-09-09T04:16:02;20.00;92.50
31675;DHT22;18276;45.520;11.018;2022-09-09T04:18:31;20.10;92.70
31675;DHT22;18276;45.520;11.018;2022-09-09T04:20:59;20.10;93.00
31675;DHT22;18276;45.520;11.018;2022-09-09T04:23:29;20.10;93.00
31675;DHT22;18276;45.520;11.018;2022-09-09T04:25:58;20.00;93.20
31675;DHT22;18276;45.520;11.018;2022-09-09T04:28:29;20.00;93.40
31675;DHT22;18276;45.520;11.018;2022-09-09T04:31:04;19.90;93.60
31675;DHT22;18276;45.520;11.018;2022-09-09T04:33:32;19.90;93.80
31675;DHT22;18276;45.520;11.018;2022-09-09T04:36:05;19.90;93.90
31675;DHT22;18276;45.520;11.018;2022-09-09T04:38:33;19.90;94.00
31675;DHT22;18276;45.520;11.018;2022-09-09T04:41:01;19.90;94.10
31675;DHT22;18276;45.520;11.018;2022-09-09T04:43:28;19.90;94.20
31675;DHT22;18276;45.520;11.018;2022-09-09T04:45:58;19.90;94.30
31675;DHT22;18276;45.520;11.018;2022-09-09T04:48:29;19.90;94.30
31675;DHT22;18276;45.520;11.018;2022-09-09T04:51:06;20.00;94.40
31675;DHT22;18276;45.520;11.018;2022-09-09T04:53:34;20.00;94.30
31675;DHT22;18276;45.520;11.018;2022-09-09T04:58:41;20.10;94.20
31675;DHT22;18276;45.520;11.018;2022-09-09T05:01:12;20.10;94.20
31675;DHT22;18276;45.520;11.018;2022-09-09T05:03:43;20.10;94.20
31675;DHT22;18276;45.520;11.018;2022-09-09T05:06:17;20.20;94.30
31675;DHT22;18276;45.520;11.018;2022-09-09T05:08:47;20.20;94.20
31675;DHT22;18276;45.520;11.018;2022-09-09T05:11:22;20.20;94.10
31675;DHT22;18276;45.520;11.018;2022-09-09T05:13:56;20.30;94.00
31675;DHT22;18276;45.520;11.018;2022-09-09T05:16:23;20.30;93.80
31675;DHT22;18276;45.520;11.018;2022-09-09T05:18:51;20.40;93.60
31675;DHT22;18276;45.520;11.018;2022-09-09T05:21:21;20.50;93.60
31675;DHT22;18276;45.520;11.018;2022-09-09T05:23:48;20.50;93.40
31675;DHT22;18276;45.520;11.018;2022-09-09T05:26:16;20.60;93.10
31675;DHT22;18276;45.520;11.018;2022-09-09T05:28:46;20.70;93.00
31675;DHT22;18276;45.520;11.018;2022-09-09T05:31:16;20.70;92.90
31675;DHT22;18276;45.520;11.018;2022-09-09T05:33:47;20.90;92.60
31675;DHT22;18276;45.520;11.018;2022-09-09T05:36:17;21.20;92.00
31675;DHT22;18276;45.520;11.018;2022-09-09T05:38:47;21.40;91.30
31675;DHT22;18276;45.520;11.018;2022-09-09T05:41:14;21.70;90.70
31675;DHT22;18276;45.520;11.018;2022-09-09T05:43:54;22.10;90.00
31675;DHT22;18276;45.520;11.018;2022-09-09T05:46:23;22.50;88.50
31675;DHT22;18276;45.520;11.018;2022-09-09T05:48:53;22.90;86.80
31675;DHT22;18276;45.520;11.018;2022-09-09T05:51:28;23.40;85.30
31675;DHT22;18276;45.520;11.018;2022-09-09T05:53:58;23.90;84.20
31675;DHT22;18276;45.520;11.018;2022-09-09T05:56:29;24.30;82.50
31675;DHT22;18276;45.520;11.018;2022-09-09T05:58:58;25.00;79.70
31675;DHT22;18276;45.520;11.018;2022-09-09T06:01:32;25.80;76.80
31675;DHT22;18276;45.520;11.018;2022-09-09T06:04:02;26.90;72.90
31675;DHT22;18276;45.520;11.018;2022-09-09T06:06:32;27.70;69.60
31675;DHT22;18276;45.520;11.018;2022-09-09T06:09:07;28.60;66.20
31675;DHT22;18276;45.520;11.018;2022-09-09T06:11:38;29.40;62.90
31675;DHT22;18276;45.520;11.018;2022-09-09T06:14:07;30.10;60.10
31675;DHT22;18276;45.520;11.018;2022-09-09T06:16:36;30.70;58.20
31675;DHT22;18276;45.520;11.018;2022-09-09T06:19:15;31.20;56.50
31675;DHT22;18276;45.520;11.018;2022-09-09T06:21:43;31.80;55.30
31675;DHT22;18276;45.520;11.018;2022-09-09T06:24:11;32.20;53.90
31675;DHT22;18276;45.520;11.018;2022-09-09T06:26:41;32.70;52.70
31675;DHT22;18276;45.520;11.018;2022-09-09T06:29:10;33.20;51.50
31675;DHT22;18276;45.520;11.018;2022-09-09T06:31:38;33.70;50.20
31675;DHT22;18276;45.520;11.018;2022-09-09T06:34:12;34.10;49.30
31675;DHT22;18276;45.520;11.018;2022-09-09T06:36:44;34.50;48.30
31675;DHT22;18276;45.520;11.018;2022-09-09T06:39:12;34.90;47.60
31675;DHT22;18276;45.520;11.018;2022-09-09T06:41:42;35.00;46.20
31675;DHT22;18276;45.520;11.018;2022-09-09T06:44:38;35.10;46.10
31675;DHT22;18276;45.520;11.018;2022-09-09T06:47:09;35.30;45.80
31675;DHT22;18276;45.520;11.018;2022-09-09T06:49:36;35.60;45.50
31675;DHT22;18276;45.520;11.018;2022-09-09T06:52:06;35.70;45.10
31675;DHT22;18276;45.520;11.018;2022-09-09T06:54:36;36.00;45.00
31675;DHT22;18276;45.520;11.018;2022-09-09T06:57:04;36.30;44.40
31675;DHT22;18276;45.520;11.018;2022-09-09T06:59:54;36.60;43.80
31675;DHT22;18276;45.520;11.018;2022-09-09T07:02:21;36.70;43.30
31675;DHT22;18276;45.520;11.018;2022-09-09T07:04:48;36.60;43.30
31675;DHT22;18276;45.520;11.018;2022-09-09T07:07:17;36.70;42.90
31675;DHT22;18276;45.520;11.018;2022-09-09T07:09:45;36.70;42.20
31675;DHT22;18276;45.520;11.018;2022-09-09T07:12:13;36.20;42.90
31675;DHT22;18276;45.520;11.018;2022-09-09T07:14:49;35.60;43.80
31675;DHT22;18276;45.520;11.018;2022-09-09T07:17:16;34.60;45.10
31675;DHT22;18276;45.520;11.018;2022-09-09T07:19:43;34.10;45.90
31675;DHT22;18276;45.520;11.018;2022-09-09T07:22:10;33.10;47.60
31675;DHT22;18276;45.520;11.018;2022-09-09T07:24:38;31.70;50.30
31675;DHT22;18276;45.520;11.018;2022-09-09T07:27:06;30.40;53.30
31675;DHT22;18276;45.520;11.018;2022-09-09T07:29:34;29.90;55.50
31675;DHT22;18276;45.520;11.018;2022-09-09T07:32:02;31.00;54.40
31675;DHT22;18276;45.520;11.018;2022-09-09T07:34:34;31.90;52.50
31675;DHT22;18276;45.520;11.018;2022-09-09T07:37:01;31.80;50.80
31675;DHT22;18276;45.520;11.018;2022-09-09T07:39:30;31.90;51.80
31675;DHT22;18276;45.520;11.018;2022-09-09T07:41:57;33.20;50.30
31675;DHT22;18276;45.520;11.018;2022-09-09T07:44:26;34.70;47.90
31675;DHT22;18276;45.520;11.018;2022-09-09T07:47:01;35.90;45.10
31675;DHT22;18276;45.520;11.018;2022-09-09T07:49:34;37.00;43.40
31675;DHT22;18276;45.520;11.018;2022-09-09T07:52:03;37.90;41.20
31675;DHT22;18276;45.520;11.018;2022-09-09T07:54:31;38.30;39.80
31675;DHT22;18276;45.520;11.018;2022-09-09T07:57:00;38.70;38.80
31675;DHT22;18276;45.520;11.018;2022-09-09T07:59:29;39.10;37.40
31675;DHT22;18276;45.520;11.018;2022-09-09T08:01:57;39.00;37.40
31675;DHT22;18276;45.520;11.018;2022-09-09T08:04:28;39.30;37.30
31675;DHT22;18276;45.520;11.018;2022-09-09T08:06:58;39.30;36.60
31675;DHT22;18276;45.520;11.018;2022-09-09T08:09:28;39.60;35.90
31675;DHT22;18276;45.520;11.018;2022-09-09T08:12:20;40.10;35.70
31675;DHT22;18276;45.520;11.018;2022-09-09T08:14:48;40.60;35.30
31675;DHT22;18276;45.520;11.018;2022-09-09T08:17:15;40.90;34.60
31675;DHT22;18276;45.520;11.018;2022-09-09T08:19:43;41.20;34.30
31675;DHT22;18276;45.520;11.018;2022-09-09T08:22:16;41.50;33.80
31675;DHT22;18276;45.520;11.018;2022-09-09T08:24:43;41.60;33.70
31675;DHT22;18276;45.520;11.018;2022-09-09T08:27:11;41.60;33.30
31675;DHT22;18276;45.520;11.018;2022-09-09T08:29:39;41.30;33.40
31675;DHT22;18276;45.520;11.018;2022-09-09T08:32:06;41.20;33.00
31675;DHT22;18276;45.520;11.018;2022-09-09T08:34:35;41.10;33.00
31675;DHT22;18276;45.520;11.018;2022-09-09T08:37:11;41.30;33.30
31675;DHT22;18276;45.520;11.018;2022-09-09T08:39:40;41.60;32.90
31675;DHT22;18276;45.520;11.018;2022-09-09T08:42:32;41.80;32.10
31675;DHT22;18276;45.520;11.018;2022-09-09T08:50:37;41.70;32.00
31675;DHT22;18276;45.520;11.018;2022-09-09T08:53:23;41.50;31.90
31675;DHT22;18276;45.520;11.018;2022-09-09T08:55:56;41.50;32.10
31675;DHT22;18276;45.520;11.018;2022-09-09T08:58:53;41.70;31.80
31675;DHT22;18276;45.520;11.018;2022-09-09T09:10:03;43.00;30.90
31675;DHT22;18276;45.520;11.018;2022-09-09T09:12:45;43.00;30.70
31675;DHT22;18276;45.520;11.018;2022-09-09T09:15:23;42.80;30.70
31675;DHT22;18276;45.520;11.018;2022-09-09T09:17:56;42.60;30.70
31675;DHT22;18276;45.520;11.018;2022-09-09T09:21:03;42.50;31.40
31675;DHT22;18276;45.520;11.018;2022-09-09T09:23:48;42.80;30.80
31675;DHT22;18276;45.520;11.018;2022-09-09T09:26:18;43.20;30.60
31675;DHT22;18276;45.520;11.018;2022-09-09T09:28:46;43.20;30.30
31675;DHT22;18276;45.520;11.018;2022-09-09T09:31:16;42.40;31.00
31675;DHT22;18276;45.520;11.018;2022-09-09T09:33:49;41.10;32.60
31675;DHT22;18276;45.520;11.018;2022-09-09T09:36:22;39.70;34.70
31675;DHT22;18276;45.520;11.018;2022-09-09T09:38:55;37.90;36.30
31675;DHT22;18276;45.520;11.018;2022-09-09T09:41:44;36.30;39.10
31675;DHT22;18276;45.520;11.018;2022-09-09T09:44:39;34.70;41.90
31675;DHT22;18276;45.520;11.018;2022-09-09T09:47:18;33.80;43.50
31675;DHT22;18276;45.520;11.018;2022-09-09T09:50:02;32.90;45.10
31675;DHT22;18276;45.520;11.018;2022-09-09T09:52:36;32.00;47.30
31675;DHT22;18276;45.520;11.018;2022-09-09T09:55:13;31.20;49.00
31675;DHT22;18276;45.520;11.018;2022-09-09T09:57:43;30.50;51.10
31675;DHT22;18276;45.520;11.018;2022-09-09T10:00:20;30.00;52.30
31675;DHT22;18276;45.520;11.018;2022-09-09T10:02:56;29.50;53.10
31675;DHT22;18276;45.520;11.018;2022-09-09T10:05:29;29.10;54.60
31675;DHT22;18276;45.520;11.018;2022-09-09T10:08:12;28.20;56.40
31675;DHT22;18276;45.520;11.018;2022-09-09T10:21:42;26.10;62.10
31675;DHT22;18276;45.520;11.018;2022-09-09T10:24:34;25.80;61.20
31675;DHT22;18276;45.520;11.018;2022-09-09T10:30:29;25.10;65.10
31675;DHT22;18276;45.520;11.018;2022-09-09T10:36:19;24.60;66.30
31675;DHT22;18276;45.520;11.018;2022-09-09T10:42:08;24.30;67.40
31675;DHT22;18276;45.520;11.018;2022-09-09T10:44:42;24.20;67.70
31675;DHT22;18276;45.520;11.018;2022-09-09T10:53:28;24.30;69.40
31675;DHT22;18276;45.520;11.018;2022-09-09T10:56:06;24.30;69.70
31675;DHT22;18276;45.520;11.018;2022-09-09T11:01:32;24.20;70.20
31675;DHT22;18276;45.520;11.018;2022-09-09T11:06:42;24.10;71.40
31675;DHT22;18276;45.520;11.018;2022-09-09T11:09:16;24.00;71.70
31675;DHT22;18276;45.520;11.018;2022-09-09T11:11:55;24.00;71.90
31675;DHT22;18276;45.520;11.018;2022-09-09T11:14:45;23.90;72.50
31675;DHT22;18276;45.520;11.018;2022-09-09T11:17:30;23.80;72.50
31675;DHT22;18276;45.520;11.018;2022-09-09T11:20:00;23.90;73.10
31675;DHT22;18276;45.520;11.018;2022-09-09T11:22:32;24.00;73.20
31675;DHT22;18276;45.520;11.018;2022-09-09T11:33:41;24.50;70.40
31675;DHT22;18276;45.520;11.018;2022-09-09T11:41:43;24.90;70.10
31675;DHT22;18276;45.520;11.018;2022-09-09T11:44:19;24.90;70.00
31675;DHT22;18276;45.520;11.018;2022-09-09T11:46:51;25.00;69.90
31675;DHT22;18276;45.520;11.018;2022-09-09T11:51:55;25.40;69.40
31675;DHT22;18276;45.520;11.018;2022-09-09T11:54:31;25.50;69.00
31675;DHT22;18276;45.520;11.018;2022-09-09T11:56:59;25.60;68.60
31675;DHT22;18276;45.520;11.018;2022-09-09T11:59:27;25.70;68.50
31675;DHT22;18276;45.520;11.018;2022-09-09T12:07:03;25.90;68.20
31675;DHT22;18276;45.520;11.018;2022-09-09T12:09:47;26.00;68.00
31675;DHT22;18276;45.520;11.018;2022-09-09T12:12:30;26.20;67.40
31675;DHT22;18276;45.520;11.018;2022-09-09T12:17:53;27.30;65.60
31675;DHT22;18276;45.520;11.018;2022-09-09T12:20:35;29.20;62.60
31675;DHT22;18276;45.520;11.018;2022-09-09T12:23:30;31.20;58.50
31675;DHT22;18276;45.520;11.018;2022-09-09T12:26:32;32.50;54.60
31675;DHT22;18276;45.520;11.018;2022-09-09T12:34:35;34.30;48.90
31675;DHT22;18276;45.520;11.018;2022-09-09T12:37:32;35.40;47.30
31675;DHT22;18276;45.520;11.018;2022-09-09T12:40:23;36.40;45.00
31675;DHT22;18276;45.520;11.018;2022-09-09T12:42:49;37.00;44.00
31675;DHT22;18276;45.520;11.018;2022-09-09T12:50:29;38.60;40.20
31675;DHT22;18276;45.520;11.018;2022-09-09T12:52:59;39.10;39.70
31675;DHT22;18276;45.520;11.018;2022-09-09T12:55:36;39.40;39.10
31675;DHT22;18276;45.520;11.018;2022-09-09T12:58:04;39.60;37.90
31675;DHT22;18276;45.520;11.018;2022-09-09T13:00:33;39.70;37.70
31675;DHT22;18276;45.520;11.018;2022-09-09T13:03:13;39.80;37.20
31675;DHT22;18276;45.520;11.018;2022-09-09T13:05:41;39.90;35.80
31675;DHT22;18276;45.520;11.018;2022-09-09T13:08:11;40.00;36.40
31675;DHT22;18276;45.520;11.018;2022-09-09T13:13:25;40.30;35.10
31675;DHT22;18276;45.520;11.018;2022-09-09T13:15:54;40.30;34.80
31675;DHT22;18276;45.520;11.018;2022-09-09T13:18:27;40.60;34.20
31675;DHT22;18276;45.520;11.018;2022-09-09T13:20:55;40.70;33.30
31675;DHT22;18276;45.520;11.018;2022-09-09T13:23:28;40.80;32.90
31675;DHT22;18276;45.520;11.018;2022-09-09T13:26:01;40.90;31.70
31675;DHT22;18276;45.520;11.018;2022-09-09T13:28:29;41.00;31.80
31675;DHT22;18276;45.520;11.018;2022-09-09T13:31:05;41.10;29.90
31675;DHT22;18276;45.520;11.018;2022-09-09T13:33:35;40.80;29.00
31675;DHT22;18276;45.520;11.018;2022-09-09T13:41:36;39.80;29.10
31675;DHT22;18276;45.520;11.018;2022-09-09T13:44:04;39.60;30.30
31675;DHT22;18276;45.520;11.018;2022-09-09T13:46:40;39.50;30.20
31675;DHT22;18276;45.520;11.018;2022-09-09T13:51:48;39.00;30.50
31675;DHT22;18276;45.520;11.018;2022-09-09T13:54:18;38.50;32.10
31675;DHT22;18276;45.520;11.018;2022-09-09T13:56:45;38.10;31.90
31675;DHT22;18276;45.520;11.018;2022-09-09T13:59:15;37.50;32.40
31675;DHT22;18276;45.520;11.018;2022-09-09T14:01:42;37.10;33.20
31675;DHT22;18276;45.520;11.018;2022-09-09T14:04:10;36.80;33.70
31675;DHT22;18276;45.520;11.018;2022-09-09T14:06:38;36.80;33.70
31675;DHT22;18276;45.520;11.018;2022-09-09T14:09:07;36.90;34.20
31675;DHT22;18276;45.520;11.018;2022-09-09T14:11:34;37.00;34.00
31675;DHT22;18276;45.520;11.018;2022-09-09T14:14:01;36.80;33.70
31675;DHT22;18276;45.520;11.018;2022-09-09T14:16:28;36.70;33.90
31675;DHT22;18276;45.520;11.018;2022-09-09T14:18:56;36.40;34.50
31675;DHT22;18276;45.520;11.018;2022-09-09T14:21:24;36.20;35.00
31675;DHT22;18276;45.520;11.018;2022-09-09T14:23:51;36.00;35.20
31675;DHT22;18276;45.520;11.018;2022-09-09T14:26:20;35.70;35.90
31675;DHT22;18276;45.520;11.018;2022-09-09T14:28:48;35.40;35.40
31675;DHT22;18276;45.520;11.018;2022-09-09T14:31:24;35.10;36.50
31675;DHT22;18276;45.520;11.018;2022-09-09T14:33:51;34.80;36.50
31675;DHT22;18276;45.520;11.018;2022-09-09T14:36:19;34.60;36.00
31675;DHT22;18276;45.520;11.018;2022-09-09T14:38:46;34.30;36.60
31675;DHT22;18276;45.520;11.018;2022-09-09T14:41:16;34.30;36.90
31675;DHT22;18276;45.520;11.018;2022-09-09T14:43:44;34.30;37.80
31675;DHT22;18276;45.520;11.018;2022-09-09T14:46:13;34.20;37.90
31675;DHT22;18276;45.520;11.018;2022-09-09T14:48:41;34.10;38.00
31675;DHT22;18276;45.520;11.018;2022-09-09T14:51:10;33.80;38.70
31675;DHT22;18276;45.520;11.018;2022-09-09T14:53:37;33.70;39.20
31675;DHT22;18276;45.520;11.018;2022-09-09T14:56:09;33.70;39.10
31675;DHT22;18276;45.520;11.018;2022-09-09T14:58:37;33.60;38.90
31675;DHT22;18276;45.520;11.018;2022-09-09T15:01:06;33.40;40.40
31675;DHT22;18276;45.520;11.018;2022-09-09T15:03:33;33.20;41.40
31675;DHT22;18276;45.520;11.018;2022-09-09T15:06:12;32.90;41.80
31675;DHT22;18276;45.520;11.018;2022-09-09T15:08:42;32.60;43.40
31675;DHT22;18276;45.520;11.018;2022-09-09T15:11:11;32.40;43.50
31675;DHT22;18276;45.520;11.018;2022-09-09T15:13:39;32.20;44.70
31675;DHT22;18276;45.520;11.018;2022-09-09T15:16:16;32.10;45.40
31675;DHT22;18276;45.520;11.018;2022-09-09T15:18:44;32.20;46.00
31675;DHT22;18276;45.520;11.018;2022-09-09T15:21:17;32.10;46.10
31675;DHT22;18276;45.520;11.018;2022-09-09T15:23:46;31.90;46.70
31675;DHT22;18276;45.520;11.018;2022-09-09T15:26:15;31.70;47.00
31675;DHT22;18276;45.520;11.018;2022-09-09T15:28:43;31.70;46.90
31675;DHT22;18276;45.520;11.018;2022-09-09T15:31:13;31.70;46.90
31675;DHT22;18276;45.520;11.018;2022-09-09T15:33:49;31.30;47.00
31675;DHT22;18276;45.520;11.018;2022-09-09T15:36:17;30.80;47.80
31675;DHT22;18276;45.520;11.018;2022-09-09T15:38:45;30.30;48.90
31675;DHT22;18276;45.520;11.018;2022-09-09T15:41:13;29.80;49.70
31675;DHT22;18276;45.520;11.018;2022-09-09T15:43:48;29.60;50.50
31675;DHT22;18276;45.520;11.018;2022-09-09T15:48:44;29.00;51.80
31675;DHT22;18276;45.520;11.018;2022-09-09T15:51:14;28.80;52.30
31675;DHT22;18276;45.520;11.018;2022-09-09T15:54:01;28.60;52.80
31675;DHT22;18276;45.520;11.018;2022-09-09T15:56:30;28.40;53.40
31675;DHT22;18276;45.520;11.018;2022-09-09T15:58:58;28.20;53.70
31675;DHT22;18276;45.520;11.018;2022-09-09T16:01:26;28.00;54.20
31675;DHT22;18276;45.520;11.018;2022-09-09T16:03:54;27.80;54.70
31675;DHT22;18276;45.520;11.018;2022-09-09T16:06:22;27.60;55.00
31675;DHT22;18276;45.520;11.018;2022-09-09T16:08:52;27.40;55.40
31675;DHT22;18276;45.520;11.018;2022-09-09T16:11:27;27.20;55.90
31675;DHT22;18276;45.520;11.018;2022-09-09T16:13:55;27.10;56.10
31675;DHT22;18276;45.520;11.018;2022-09-09T16:16:25;26.90;56.50
31675;DHT22;18276;45.520;11.018;2022-09-09T16:18:54;26.70;57.20
31675;DHT22;18276;45.520;11.018;2022-09-09T16:21:39;26.50;57.60
31675;DHT22;18276;45.520;11.018;2022-09-09T16:24:08;26.30;58.20
31675;DHT22;18276;45.520;11.018;2022-09-09T16:26:37;26.10;58.70
31675;DHT22;18276;45.520;11.018;2022-09-09T16:29:05;26.00;58.90
31675;DHT22;18276;45.520;11.018;2022-09-09T16:31:32;25.80;59.30
31675;DHT22;18276;45.520;11.018;2022-09-09T16:33:59;25.70;59.80
31675;DHT22;18276;45.520;11.018;2022-09-09T16:36:31;25.60;60.30
31675;DHT22;18276;45.520;11.018;2022-09-09T16:39:00;25.50;60.50
31675;DHT22;18276;45.520;11.018;2022-09-09T16:41:29;25.40;61.10
31675;DHT22;18276;45.520;11.018;2022-09-09T16:43:58;25.30;61.10
31675;DHT22;18276;45.520;11.018;2022-09-09T16:46:27;25.10;61.50
31675;DHT22;18276;45.520;11.018;2022-09-09T16:49:00;25.00;61.90
31675;DHT22;18276;45.520;11.018;2022-09-09T16:51:30;25.00;62.10
31675;DHT22;18276;45.520;11.018;2022-09-09T16:53:59;24.90;62.40
31675;DHT22;18276;45.520;11.018;2022-09-09T16:56:29;24.80;62.50
31675;DHT22;18276;45.520;11.018;2022-09-09T16:59:01;24.70;63.00
31675;DHT22;18276;45.520;11.018;2022-09-09T17:01:31;24.60;63.50
31675;DHT22;18276;45.520;11.018;2022-09-09T17:04:01;24.50;63.60
31675;DHT22;18276;45.520;11.018;2022-09-09T17:06:30;24.50;64.00
31675;DHT22;18276;45.520;11.018;2022-09-09T17:08:59;24.50;64.20
31675;DHT22;18276;45.520;11.018;2022-09-09T17:11:28;24.50;64.90
31675;DHT22;18276;45.520;11.018;2022-09-09T17:13:56;24.40;65.20
31675;DHT22;18276;45.520;11.018;2022-09-09T17:16:29;24.40;65.70
31675;DHT22;18276;45.520;11.018;2022-09-09T17:18:57;24.40;66.30
31675;DHT22;18276;45.520;11.018;2022-09-09T17:21:26;24.30;66.90
31675;DHT22;18276;45.520;11.018;2022-09-09T17:23:54;24.30;67.50
31675;DHT22;18276;45.520;11.018;2022-09-09T17:26:25;24.20;68.10
31675;DHT22;18276;45.520;11.018;2022-09-09T17:28:54;24.10;68.70
31675;DHT22;18276;45.520;11.018;2022-09-09T17:31:26;24.00;69.20
31675;DHT22;18276;45.520;11.018;2022-09-09T17:33:55;23.90;69.80
31675;DHT22;18276;45.520;11.018;2022-09-09T17:36:30;23.80;70.40
31675;DHT22;18276;45.520;11.018;2022-09-09T17:38:58;23.70;71.00
31675;DHT22;18276;45.520;11.018;2022-09-09T17:41:31;23.60;71.10
31675;DHT22;18276;45.520;11.018;2022-09-09T17:43:59;23.50;71.60
31675;DHT22;18276;45.520;11.018;2022-09-09T17:46:31;23.40;71.90
31675;DHT22;18276;45.520;11.018;2022-09-09T17:49:05;23.30;72.40
31675;DHT22;18276;45.520;11.018;2022-09-09T17:51:34;23.20;72.60
31675;DHT22;18276;45.520;11.018;2022-09-09T17:54:24;23.10;72.90
31675;DHT22;18276;45.520;11.018;2022-09-09T17:56:51;23.10;73.10
31675;DHT22;18276;45.520;11.018;2022-09-09T17:59:18;23.00;73.20
31675;DHT22;18276;45.520;11.018;2022-09-09T18:01:47;22.90;73.60
31675;DHT22;18276;45.520;11.018;2022-09-09T18:04:16;22.80;74.00
31675;DHT22;18276;45.520;11.018;2022-09-09T18:06:49;22.80;74.40
31675;DHT22;18276;45.520;11.018;2022-09-09T18:09:19;22.70;74.70
31675;DHT22;18276;45.520;11.018;2022-09-09T18:11:49;22.70;74.80
31675;DHT22;18276;45.520;11.018;2022-09-09T18:14:18;22.60;75.10